sensor_id;sensor_type;location;lat;lon;timestamp;pressure;altitude;pressure_sealevel;temperature;humidity
53960;BME280;39866;48.638;-2.020;2023-09-19T00:02:12;101242.84;;;21.09;100.00
53960;BME280;39866;48.638;-2.020;2023-09-19T00:04:37;101243.81;;;21.08;100.00
53960;BME280;39866;48.638;-2.020;2023-09-19T00:07:05;101257.16;;;20.97;100.00
53960;BME280;39866;48.638;-2.020;2023-09-19T00:09:30;101246.91;;;21.02;100.00
53960;BME280;39866;48.638;-2.020;2023-09-19T00:12:02;101242.28;;;21.04;100.00
53960;BME280;39866;48.638;-2.020;2023-09-19T00:14:28;101256.09;;;20.99;100.00
53960;BME280;39866;48.638;-2.020;2023-09-19T00:16:53;101241.47;;;21.02;100.00
53960;BME280;39866;48.638;-2.020;2023-09-19T00:19:19;101244.19;;;21.02;100.00
53960;BME280;39866;48.638;-2.020;2023-09-19T00:21:45;101246.03;;;21.01;100.00
53960;BME280;39866;48.638;-2.020;2023-09-19T00:24:12;101248.66;;;21.03;100.00
53960;BME280;39866;48.638;-2.020;2023-09-19T00:26:39;101237.91;;;21.01;100.00
53960;BME280;39866;48.638;-2.020;2023-09-19T00:29:07;101241.69;;;20.99;100.00
53960;BME280;39866;48.638;-2.020;2023-09-19T00:31:34;101236.28;;;20.99;100.00
53960;BME280;39866;48.638;-2.020;2023-09-19T00:33:59;101241.47;;;21.02;100.00
53960;BME280;39866;48.638;-2.020;2023-09-19T00:36:35;101239.44;;;21.06;100.00
53960;BME280;39866;48.638;-2.020;2023-09-19T00:39:00;101244.28;;;21.00;100.00
53960;BME280;39866;48.638;-2.020;2023-09-19T00:41:25;101244.78;;;21.07;100.00
53960;BME280;39866;48.638;-2.020;2023-09-19T00:43:51;101248.44;;;21.06;100.00
53960;BME280;39866;48.638;-2.020;2023-09-19T00:46:17;101247.00;;;21.00;100.00
53960;BME280;39866;48.638;-2.020;2023-09-19T00:48:42;101243.53;;;20.98;100.00
53960;BME280;39866;48.638;-2.020;2023-09-19T00:51:12;101249.59;;;21.02;100.00
53960;BME280;39866;48.638;-2.020;2023-09-19T00:53:39;101246.63;;;20.92;100.00
53960;BME280;39866;48.638;-2.020;2023-09-19T00:56:07;101246.94;;;20.88;100.00
53960;BME280;39866;48.638;-2.020;2023-09-19T00:58:33;101254.75;;;20.92;100.00
53960;BME280;39866;48.638;-2.020;2023-09-19T01:01:01;101256.28;;;20.96;100.00
53960;BME280;39866;48.638;-2.020;2023-09-19T01:03:27;101246.13;;;21.00;100.00
53960;BME280;39866;48.638;-2.020;2023-09-19T01:05:52;101248.16;;;20.96;100.00
53960;BME280;39866;48.638;-2.020;2023-09-19T01:08:18;101249.16;;;20.95;100.00
53960;BME280;39866;48.638;-2.020;2023-09-19T01:10:52;101252.34;;;20.88;100.00
53960;BME280;39866;48.638;-2.020;2023-09-19T01:13:31;101248.56;;;20.90;100.00
53960;BME280;39866;48.638;-2.020;2023-09-19T01:16:27;101247.13;;;20.85;100.00
53960;BME280;39866;48.638;-2.020;2023-09-19T01:19:13;101234.94;;;20.92;100.00
53960;BME280;39866;48.638;-2.020;2023-09-19T01:30:32;101235.91;;;20.91;100.00
53960;BME280;39866;48.638;-2.020;2023-09-19T01:33:01;101226.72;;;20.93;100.00
53960;BME280;39866;48.638;-2.020;2023-09-19T01:35:26;101230.50;;;20.91;100.00
53960;BME280;39866;48.638;-2.020;2023-09-19T01:37:52;101230.50;;;20.91;100.00
53960;BME280;39866;48.638;-2.020;2023-09-19T01:40:20;101227.88;;;20.89;100.00
53960;BME280;39866;48.638;-2.020;2023-09-19T01:43:12;101232.34;;;20.90;100.00
53960;BME280;39866;48.638;-2.020;2023-09-19T01:48:27;101238.13;;;20.84;100.00
53960;BME280;39866;48.638;-2.020;2023-09-19T01:51:05;101237.06;;;20.87;100.00
53960;BME280;39866;48.638;-2.020;2023-09-19T01:56:12;101244.41;;;20.85;100.00
53960;BME280;39866;48.638;-2.020;2023-09-19T01:58:49;101241.69;;;20.85;100.00
53960;BME280;39866;48.638;-2.020;2023-09-19T02:01:20;101240.34;;;20.77;100.00
53960;BME280;39866;48.638;-2.020;2023-09-19T02:03:48;101239.28;;;20.80;100.00
53960;BME280;39866;48.638;-2.020;2023-09-19T02:06:17;101233.00;;;20.80;100.00
53960;BME280;39866;48.638;-2.020;2023-09-19T02:08:44;101234.66;;;20.82;100.00
53960;BME280;39866;48.638;-2.020;2023-09-19T02:11:13;101227.31;;;20.84;100.00
53960;BME280;39866;48.638;-2.020;2023-09-19T02:13:39;101225.75;;;20.80;100.00
53960;BME280;39866;48.638;-2.020;2023-09-19T02:16:06;101224.91;;;20.80;100.00
53960;BME280;39866;48.638;-2.020;2023-09-19T02:18:32;101219.84;;;20.73;100.00
53960;BME280;39866;48.638;-2.020;2023-09-19T02:21:00;101211.38;;;20.65;100.00
53960;BME280;39866;48.638;-2.020;2023-09-19T02:23:26;101215.75;;;20.53;100.00
53960;BME280;39866;48.638;-2.020;2023-09-19T02:25:54;101206.34;;;20.59;100.00
53960;BME280;39866;48.638;-2.020;2023-09-19T02:28:20;101202.00;;;20.57;100.00
53960;BME280;39866;48.638;-2.020;2023-09-19T02:30:49;101204.31;;;20.63;100.00
53960;BME280;39866;48.638;-2.020;2023-09-19T02:33:15;101203.91;;;20.69;100.00
53960;BME280;39866;48.638;-2.020;2023-09-19T02:35:42;101213.69;;;20.57;100.00
53960;BME280;39866;48.638;-2.020;2023-09-19T02:38:08;101226.72;;;20.65;100.00
53960;BME280;39866;48.638;-2.020;2023-09-19T02:40:33;101204.41;;;20.61;100.00
53960;BME280;39866;48.638;-2.020;2023-09-19T02:43:01;101198.06;;;20.62;100.00
53960;BME280;39866;48.638;-2.020;2023-09-19T02:45:27;101200.53;;;20.65;100.00
53960;BME280;39866;48.638;-2.020;2023-09-19T02:47:53;101215.81;;;20.66;100.00
53960;BME280;39866;48.638;-2.020;2023-09-19T02:50:18;101212.44;;;20.63;100.00
53960;BME280;39866;48.638;-2.020;2023-09-19T02:52:45;101200.94;;;20.59;100.00
53960;BME280;39866;48.638;-2.020;2023-09-19T02:55:14;101212.25;;;20.66;100.00
53960;BME280;39866;48.638;-2.020;2023-09-19T02:57:49;101204.13;;;20.66;100.00
53960;BME280;39866;48.638;-2.020;2023-09-19T03:00:15;101203.16;;;20.67;100.00
53960;BME280;39866;48.638;-2.020;2023-09-19T03:02:41;101208.47;;;20.68;100.00
53960;BME280;39866;48.638;-2.020;2023-09-19T03:05:08;101216.78;;;20.65;100.00
53960;BME280;39866;48.638;-2.020;2023-09-19T03:07:36;101212.91;;;20.69;100.00
53960;BME280;39866;48.638;-2.020;2023-09-19T03:10:03;101209.94;;;20.74;100.00
53960;BME280;39866;48.638;-2.020;2023-09-19T03:12:28;101213.88;;;20.68;100.00
53960;BME280;39866;48.638;-2.020;2023-09-19T03:14:54;101210.31;;;20.68;100.00
53960;BME280;39866;48.638;-2.020;2023-09-19T03:17:20;101215.03;;;20.64;100.00
53960;BME280;39866;48.638;-2.020;2023-09-19T03:19:46;101207.09;;;20.61;100.00
53960;BME280;39866;48.638;-2.020;2023-09-19T03:22:12;101198.63;;;20.67;100.00
53960;BME280;39866;48.638;-2.020;2023-09-19T03:24:38;101200.53;;;20.65;100.00
53960;BME280;39866;48.638;-2.020;2023-09-19T03:27:03;101189.16;;;20.74;100.00
53960;BME280;39866;48.638;-2.020;2023-09-19T03:29:29;101194.94;;;20.83;100.00
53960;BME280;39866;48.638;-2.020;2023-09-19T03:31:54;101202.84;;;20.86;100.00
53960;BME280;39866;48.638;-2.020;2023-09-19T03:34:20;101197.22;;;20.89;100.00
53960;BME280;39866;48.638;-2.020;2023-09-19T03:36:46;101196.00;;;20.80;100.00
53960;BME280;39866;48.638;-2.020;2023-09-19T03:39:11;101208.47;;;20.83;100.00
53960;BME280;39866;48.638;-2.020;2023-09-19T03:41:37;101199.75;;;20.77;100.00
53960;BME280;39866;48.638;-2.020;2023-09-19T03:44:02;101191.94;;;20.73;100.00
53960;BME280;39866;48.638;-2.020;2023-09-19T03:46:28;101200.84;;;20.75;100.00
53960;BME280;39866;48.638;-2.020;2023-09-19T03:48:53;101200.84;;;20.75;100.00
53960;BME280;39866;48.638;-2.020;2023-09-19T03:51:20;101197.16;;;20.76;100.00
53960;BME280;39866;48.638;-2.020;2023-09-19T03:53:45;101196.09;;;20.78;100.00
53960;BME280;39866;48.638;-2.020;2023-09-19T03:56:10;101198.59;;;20.82;100.00
53960;BME280;39866;48.638;-2.020;2023-09-19T03:58:36;101198.50;;;20.83;100.00
53960;BME280;39866;48.638;-2.020;2023-09-19T04:01:04;101193.84;;;20.85;100.00
53960;BME280;39866;48.638;-2.020;2023-09-19T04:03:32;101200.53;;;20.80;100.00
53960;BME280;39866;48.638;-2.020;2023-09-19T04:06:01;101206.06;;;20.78;100.00
53960;BME280;39866;48.638;-2.020;2023-09-19T04:08:26;101188.38;;;20.72;100.00
53960;BME280;39866;48.638;-2.020;2023-09-19T04:10:52;101188.38;;;20.72;100.00
53960;BME280;39866;48.638;-2.020;2023-09-19T04:13:18;101194.16;;;20.81;100.00
53960;BME280;39866;48.638;-2.020;2023-09-19T04:15:43;101187.00;;;20.80;100.00
53960;BME280;39866;48.638;-2.020;2023-09-19T04:18:11;101188.66;;;20.82;100.00
53960;BME280;39866;48.638;-2.020;2023-09-19T04:20:36;101191.06;;;20.87;100.00
53960;BME280;39866;48.638;-2.020;2023-09-19T04:23:02;101188.75;;;20.81;100.00
53960;BME280;39866;48.638;-2.020;2023-09-19T04:25:27;101183.34;;;20.81;100.00
53960;BME280;39866;48.638;-2.020;2023-09-19T04:27:53;101190.28;;;20.85;100.00
53960;BME280;39866;48.638;-2.020;2023-09-19T04:30:18;101189.03;;;20.90;100.00
53960;BME280;39866;48.638;-2.020;2023-09-19T04:32:44;101189.22;;;20.87;100.00
53960;BME280;39866;48.638;-2.020;2023-09-19T04:35:10;101191.56;;;20.79;100.00
53960;BME280;39866;48.638;-2.020;2023-09-19T04:37:37;101182.56;;;20.78;100.00
53960;BME280;39866;48.638;-2.020;2023-09-19T04:40:04;101183.13;;;20.84;100.00
53960;BME280;39866;48.638;-2.020;2023-09-19T04:42:31;101184.97;;;20.83;100.00
53960;BME280;39866;48.638;-2.020;2023-09-19T04:44:56;101186.53;;;20.87;100.00
53960;BME280;39866;48.638;-2.020;2023-09-19T04:47:22;101186.41;;;20.89;100.00
53960;BME280;39866;48.638;-2.020;2023-09-19T04:49:47;101188.38;;;20.87;100.00
53960;BME280;39866;48.638;-2.020;2023-09-19T04:52:13;101184.69;;;20.88;100.00
53960;BME280;39866;48.638;-2.020;2023-09-19T04:54:40;101183.72;;;20.89;100.00
53960;BME280;39866;48.638;-2.020;2023-09-19T04:57:06;101172.88;;;20.89;100.00
53960;BME280;39866;48.638;-2.020;2023-09-19T04:59:32;101165.53;;;20.91;100.00
53960;BME280;39866;48.638;-2.020;2023-09-19T05:01:58;101169.13;;;20.91;100.00
53960;BME280;39866;48.638;-2.020;2023-09-19T05:04:23;101174.41;;;20.93;100.00
53960;BME280;39866;48.638;-2.020;2023-09-19T05:06:49;101166.50;;;20.90;100.00
53960;BME280;39866;48.638;-2.020;2023-09-19T05:09:14;101178.41;;;20.87;100.00
53960;BME280;39866;48.638;-2.020;2023-09-19T05:11:40;101182.28;;;20.83;100.00
53960;BME280;39866;48.638;-2.020;2023-09-19T05:14:06;101184.59;;;20.75;100.00
53960;BME280;39866;48.638;-2.020;2023-09-19T05:16:31;101180.25;;;20.72;100.00
53960;BME280;39866;48.638;-2.020;2023-09-19T05:18:57;101182.38;;;20.67;100.00
53960;BME280;39866;48.638;-2.020;2023-09-19T05:21:28;101184.78;;;20.72;100.00
53960;BME280;39866;48.638;-2.020;2023-09-19T05:23:54;101187.38;;;20.73;100.00
53960;BME280;39866;48.638;-2.020;2023-09-19T05:26:19;101188.19;;;20.75;100.00
53960;BME280;39866;48.638;-2.020;2023-09-19T05:28:46;101181.97;;;20.73;100.00
53960;BME280;39866;48.638;-2.020;2023-09-19T05:31:13;101179.88;;;20.78;100.00
53960;BME280;39866;48.638;-2.020;2023-09-19T05:33:39;101189.34;;;20.71;100.00
53960;BME280;39866;48.638;-2.020;2023-09-19T05:36:05;101181.78;;;20.76;100.00
53960;BME280;39866;48.638;-2.020;2023-09-19T05:38:30;101180.63;;;20.81;100.00
53960;BME280;39866;48.638;-2.020;2023-09-19T05:40:56;101182.66;;;20.77;100.00
53960;BME280;39866;48.638;-2.020;2023-09-19T05:43:21;101183.75;;;20.74;100.00
53960;BME280;39866;48.638;-2.020;2023-09-19T05:45:47;101188.94;;;20.77;100.00
53960;BME280;39866;48.638;-2.020;2023-09-19T05:48:13;101183.34;;;20.81;100.00
53960;BME280;39866;48.638;-2.020;2023-09-19T05:50:41;101192.31;;;20.81;100.00
53960;BME280;39866;48.638;-2.020;2023-09-19T05:53:06;101182.66;;;20.77;100.00
53960;BME280;39866;48.638;-2.020;2023-09-19T05:55:32;101183.94;;;20.71;100.00
53960;BME280;39866;48.638;-2.020;2023-09-19T05:57:58;101193.59;;;20.75;100.00
53960;BME280;39866;48.638;-2.020;2023-09-19T06:00:25;101182.34;;;20.82;100.00
53960;BME280;39866;48.638;-2.020;2023-09-19T06:02:57;101184.31;;;20.80;100.00
53960;BME280;39866;48.638;-2.020;2023-09-19T06:05:26;101184.00;;;20.84;100.00
53960;BME280;39866;48.638;-2.020;2023-09-19T06:07:52;101185.84;;;20.84;100.00
53960;BME280;39866;48.638;-2.020;2023-09-19T06:10:18;101180.72;;;20.79;100.00
53960;BME280;39866;48.638;-2.020;2023-09-19T06:12:46;101178.09;;;20.77;100.00
53960;BME280;39866;48.638;-2.020;2023-09-19T06:15:12;101183.91;;;20.86;100.00
53960;BME280;39866;48.638;-2.020;2023-09-19T06:17:42;101179.16;;;20.89;100.00
53960;BME280;39866;48.638;-2.020;2023-09-19T06:20:08;101172.69;;;20.92;100.00
53960;BME280;39866;48.638;-2.020;2023-09-19T06:22:44;101170.84;;;20.92;100.00
53960;BME280;39866;48.638;-2.020;2023-09-19T06:25:13;101164.47;;;20.93;100.00
53960;BME280;39866;48.638;-2.020;2023-09-19T06:27:47;101157.88;;;20.97;100.00
53960;BME280;39866;48.638;-2.020;2023-09-19T06:30:13;101159.03;;;20.93;100.00
53960;BME280;39866;48.638;-2.020;2023-09-19T06:32:40;101167.84;;;20.97;100.00
53960;BME280;39866;48.638;-2.020;2023-09-19T06:35:09;101165.78;;;21.00;100.00
53960;BME280;39866;48.638;-2.020;2023-09-19T06:37:39;101162.03;;;21.03;100.00
53960;BME280;39866;48.638;-2.020;2023-09-19T06:42:34;101153.91;;;21.03;100.00
53960;BME280;39866;48.638;-2.020;2023-09-19T06:45:00;101154.97;;;21.00;100.00
53960;BME280;39866;48.638;-2.020;2023-09-19T06:47:25;101171.88;;;21.04;100.00
53960;BME280;39866;48.638;-2.020;2023-09-19T06:49:51;101169.38;;;21.01;100.00
53960;BME280;39866;48.638;-2.020;2023-09-19T06:52:17;101171.09;;;21.02;100.00
53960;BME280;39866;48.638;-2.020;2023-09-19T06:54:42;101159.31;;;21.03;100.00
53960;BME280;39866;48.638;-2.020;2023-09-19T06:57:07;101163.75;;;21.04;100.00
53960;BME280;39866;48.638;-2.020;2023-09-19T06:59:35;101167.91;;;21.10;100.00
53960;BME280;39866;48.638;-2.020;2023-09-19T07:02:02;101160.75;;;21.09;100.00
53960;BME280;39866;48.638;-2.020;2023-09-19T07:04:27;101166.16;;;21.09;100.00
53960;BME280;39866;48.638;-2.020;2023-09-19T07:06:53;101162.75;;;21.19;100.00
53960;BME280;39866;48.638;-2.020;2023-09-19T07:09:18;101166.53;;;21.17;100.00
53960;BME280;39866;48.638;-2.020;2023-09-19T07:11:47;101162.75;;;21.19;100.00
53960;BME280;39866;48.638;-2.020;2023-09-19T07:14:13;101163.19;;;21.26;100.00
53960;BME280;39866;48.638;-2.020;2023-09-19T07:16:38;101167.34;;;21.32;100.00
53960;BME280;39866;48.638;-2.020;2023-09-19T07:19:05;101162.88;;;21.31;100.00
53960;BME280;39866;48.638;-2.020;2023-09-19T07:21:31;101155.38;;;21.36;100.00
53960;BME280;39866;48.638;-2.020;2023-09-19T07:23:59;101161.75;;;21.35;100.00
53960;BME280;39866;48.638;-2.020;2023-09-19T07:26:26;101154.59;;;21.34;100.00
53960;BME280;39866;48.638;-2.020;2023-09-19T07:28:51;101153.81;;;21.32;100.00
53960;BME280;39866;48.638;-2.020;2023-09-19T07:31:17;101154.28;;;21.38;100.00
53960;BME280;39866;48.638;-2.020;2023-09-19T07:33:42;101150.50;;;21.41;100.00
53960;BME280;39866;48.638;-2.020;2023-09-19T07:36:09;101146.81;;;21.42;100.00
53960;BME280;39866;48.638;-2.020;2023-09-19T07:38:35;101141.59;;;21.39;100.00
53960;BME280;39866;48.638;-2.020;2023-09-19T07:41:01;101151.38;;;21.41;100.00
53960;BME280;39866;48.638;-2.020;2023-09-19T07:43:28;101145.56;;;21.47;100.00
53960;BME280;39866;48.638;-2.020;2023-09-19T07:45:53;101151.06;;;21.46;100.00
53960;BME280;39866;48.638;-2.020;2023-09-19T07:48:18;101147.81;;;21.41;100.00
53960;BME280;39866;48.638;-2.020;2023-09-19T07:50:44;101146.31;;;21.49;100.00
53960;BME280;39866;48.638;-2.020;2023-09-19T07:53:10;101140.69;;;21.52;100.00
53960;BME280;39866;48.638;-2.020;2023-09-19T07:55:38;101145.00;;;21.55;100.00
53960;BME280;39866;48.638;-2.020;2023-09-19T07:58:04;101141.13;;;21.59;100.00
53960;BME280;39866;48.638;-2.020;2023-09-19T08:00:31;101144.16;;;21.67;100.00
53960;BME280;39866;48.638;-2.020;2023-09-19T08:02:59;101138.34;;;21.73;100.00
53960;BME280;39866;48.638;-2.020;2023-09-19T08:05:25;101153.97;;;21.83;100.00
53960;BME280;39866;48.638;-2.020;2023-09-19T08:07:51;101144.84;;;21.84;100.00
53960;BME280;39866;48.638;-2.020;2023-09-19T08:10:17;101158.00;;;21.90;100.00
53960;BME280;39866;48.638;-2.020;2023-09-19T08:12:46;101163.63;;;21.87;100.00
53960;BME280;39866;48.638;-2.020;2023-09-19T08:15:16;101157.31;;;21.86;100.00
53960;BME280;39866;48.638;-2.020;2023-09-19T08:17:42;101160.03;;;21.86;100.00
53960;BME280;39866;48.638;-2.020;2023-09-19T08:20:09;101154.06;;;21.81;100.00
53960;BME280;39866;48.638;-2.020;2023-09-19T08:22:49;101154.63;;;21.86;100.00
53960;BME280;39866;48.638;-2.020;2023-09-19T08:25:18;101157.84;;;21.79;100.00
53960;BME280;39866;48.638;-2.020;2023-09-19T08:27:47;101148.00;;;21.77;100.00
53960;BME280;39866;48.638;-2.020;2023-09-19T08:30:21;101151.25;;;21.83;100.00
53960;BME280;39866;48.638;-2.020;2023-09-19T08:32:49;101152.97;;;21.84;100.00
53960;BME280;39866;48.638;-2.020;2023-09-19T08:35:15;101159.28;;;21.84;100.00
53960;BME280;39866;48.638;-2.020;2023-09-19T08:37:41;101160.91;;;21.87;100.00
53960;BME280;39866;48.638;-2.020;2023-09-19T08:40:07;101154.09;;;21.94;100.00
53960;BME280;39866;48.638;-2.020;2023-09-19T08:42:50;101156.03;;;21.92;100.00
53960;BME280;39866;48.638;-2.020;2023-09-19T08:45:16;101160.59;;;21.91;100.00
53960;BME280;39866;48.638;-2.020;2023-09-19T08:47:46;101152.91;;;21.98;100.00
53960;BME280;39866;48.638;-2.020;2023-09-19T08:50:24;101157.00;;;21.91;100.00
53960;BME280;39866;48.638;-2.020;2023-09-19T08:52:52;101155.81;;;21.95;100.00
53960;BME280;39866;48.638;-2.020;2023-09-19T08:55:20;101156.81;;;21.94;100.00
53960;BME280;39866;48.638;-2.020;2023-09-19T08:57:49;101153.03;;;21.96;100.00
53960;BME280;39866;48.638;-2.020;2023-09-19T09:00:18;101154.97;;;22.07;100.00
53960;BME280;39866;48.638;-2.020;2023-09-19T09:02:46;101165.19;;;22.16;100.00
53960;BME280;39866;48.638;-2.020;2023-09-19T09:05:12;101163.25;;;22.18;100.00
53960;BME280;39866;48.638;-2.020;2023-09-19T09:07:40;101169.22;;;22.23;100.00
53960;BME280;39866;48.638;-2.020;2023-09-19T09:10:06;101158.34;;;22.23;100.00
53960;BME280;39866;48.638;-2.020;2023-09-19T09:12:32;101149.78;;;22.30;100.00
53960;BME280;39866;48.638;-2.020;2023-09-19T09:14:59;101144.69;;;22.38;100.00
53960;BME280;39866;48.638;-2.020;2023-09-19T09:17:25;101147.81;;;22.44;100.00
53960;BME280;39866;48.638;-2.020;2023-09-19T09:19:54;101150.84;;;22.53;100.00
53960;BME280;39866;48.638;-2.020;2023-09-19T09:22:21;101137.91;;;22.56;100.00
53960;BME280;39866;48.638;-2.020;2023-09-19T09:24:59;101143.88;;;22.61;100.00
53960;BME280;39866;48.638;-2.020;2023-09-19T09:27:26;101138.31;;;22.75;100.00
53960;BME280;39866;48.638;-2.020;2023-09-19T09:29:53;101144.47;;;22.78;100.00
53960;BME280;39866;48.638;-2.020;2023-09-19T09:32:27;101142.31;;;22.83;100.00
53960;BME280;39866;48.638;-2.020;2023-09-19T09:37:20;101141.56;;;22.81;100.00
53960;BME280;39866;48.638;-2.020;2023-09-19T09:39:52;101149.91;;;22.78;100.00
53960;BME280;39866;48.638;-2.020;2023-09-19T09:42:29;101141.13;;;22.87;100.00
53960;BME280;39866;48.638;-2.020;2023-09-19T09:47:44;101128.22;;;22.90;100.00
53960;BME280;39866;48.638;-2.020;2023-09-19T09:50:27;101146.31;;;23.03;100.00
53960;BME280;39866;48.638;-2.020;2023-09-19T09:53:07;101151.19;;;22.97;100.00
53960;BME280;39866;48.638;-2.020;2023-09-19T09:56:07;101149.25;;;22.99;100.00
53960;BME280;39866;48.638;-2.020;2023-09-19T10:01:06;101141.63;;;23.05;100.00
53960;BME280;39866;48.638;-2.020;2023-09-19T10:03:40;101138.78;;;23.06;100.00
53960;BME280;39866;48.638;-2.020;2023-09-19T10:06:10;101135.28;;;23.17;100.00
53960;BME280;39866;48.638;-2.020;2023-09-19T10:09:08;101124.34;;;23.30;100.00
53960;BME280;39866;48.638;-2.020;2023-09-19T10:12:05;101119.84;;;23.17;100.00
53960;BME280;39866;48.638;-2.020;2023-09-19T10:14:30;101122.44;;;23.19;100.00
53960;BME280;39866;48.638;-2.020;2023-09-19T10:16:59;101125.31;;;23.29;100.00
53960;BME280;39866;48.638;-2.020;2023-09-19T10:19:39;101124.38;;;23.41;100.00
53960;BME280;39866;48.638;-2.020;2023-09-19T10:22:12;101123.69;;;23.26;100.00
53960;BME280;39866;48.638;-2.020;2023-09-19T10:24:40;101120.47;;;23.21;100.00
53960;BME280;39866;48.638;-2.020;2023-09-19T10:27:06;101124.06;;;23.21;100.00
53960;BME280;39866;48.638;-2.020;2023-09-19T10:29:34;101104.81;;;23.24;100.00
53960;BME280;39866;48.638;-2.020;2023-09-19T10:32:03;101110.41;;;23.34;100.00
53960;BME280;39866;48.638;-2.020;2023-09-19T10:34:34;101106.09;;;23.32;100.00
53960;BME280;39866;48.638;-2.020;2023-09-19T10:37:02;101117.50;;;23.48;100.00
53960;BME280;39866;48.638;-2.020;2023-09-19T10:39:31;101124.47;;;23.63;100.00
53960;BME280;39866;48.638;-2.020;2023-09-19T10:42:01;101131.13;;;23.59;100.00
53960;BME280;39866;48.638;-2.020;2023-09-19T10:44:32;101124.31;;;23.54;100.00
53960;BME280;39866;48.638;-2.020;2023-09-19T10:46:58;101105.16;;;23.55;99.43
53960;BME280;39866;48.638;-2.020;2023-09-19T10:49:24;101102.72;;;23.63;100.00
53960;BME280;39866;48.638;-2.020;2023-09-19T10:51:54;101104.25;;;23.67;100.00
53960;BME280;39866;48.638;-2.020;2023-09-19T10:54:27;101095.00;;;23.70;98.44
53960;BME280;39866;48.638;-2.020;2023-09-19T10:56:53;101095.50;;;23.75;98.14
53960;BME280;39866;48.638;-2.020;2023-09-19T10:59:21;101095.44;;;23.64;96.76
53960;BME280;39866;48.638;-2.020;2023-09-19T11:01:52;101105.69;;;23.60;97.69
53960;BME280;39866;48.638;-2.020;2023-09-19T11:04:37;101104.38;;;23.66;97.39
53960;BME280;39866;48.638;-2.020;2023-09-19T11:07:11;101105.78;;;23.59;97.61
53960;BME280;39866;48.638;-2.020;2023-09-19T11:09:56;101116.78;;;23.57;95.29
53960;BME280;39866;48.638;-2.020;2023-09-19T11:15:03;101092.09;;;23.60;95.01
53960;BME280;39866;48.638;-2.020;2023-09-19T11:17:37;101097.41;;;23.62;95.15
53960;BME280;39866;48.638;-2.020;2023-09-19T11:25:45;101093.91;;;23.84;95.49
53960;BME280;39866;48.638;-2.020;2023-09-19T11:30:44;101104.94;;;23.93;94.52
53960;BME280;39866;48.638;-2.020;2023-09-19T11:33:38;101094.41;;;24.00;95.24
53960;BME280;39866;48.638;-2.020;2023-09-19T11:36:11;101103.81;;;24.07;95.86
53960;BME280;39866;48.638;-2.020;2023-09-19T11:46:29;101111.50;;;24.02;91.23
53960;BME280;39866;48.638;-2.020;2023-09-19T11:49:05;101107.88;;;23.90;91.24
53960;BME280;39866;48.638;-2.020;2023-09-19T11:51:40;101101.59;;;23.90;89.88
53960;BME280;39866;48.638;-2.020;2023-09-19T11:54:10;101106.38;;;23.86;90.72
53960;BME280;39866;48.638;-2.020;2023-09-19T11:56:41;101098.72;;;23.91;89.47
53960;BME280;39866;48.638;-2.020;2023-09-19T11:59:07;101089.97;;;23.99;90.03
53960;BME280;39866;48.638;-2.020;2023-09-19T12:01:33;101107.03;;;24.12;90.09
53960;BME280;39866;48.638;-2.020;2023-09-19T12:04:01;101102.09;;;24.06;88.91
53960;BME280;39866;48.638;-2.020;2023-09-19T12:06:28;101100.38;;;24.05;88.56
53960;BME280;39866;48.638;-2.020;2023-09-19T12:09:00;101096.53;;;23.96;89.38
53960;BME280;39866;48.638;-2.020;2023-09-19T12:11:30;101091.81;;;23.98;89.67
53960;BME280;39866;48.638;-2.020;2023-09-19T12:13:59;101103.34;;;24.02;90.70
53960;BME280;39866;48.638;-2.020;2023-09-19T12:16:26;101097.50;;;23.95;90.43
53960;BME280;39866;48.638;-2.020;2023-09-19T12:18:56;101092.31;;;24.04;90.59
53960;BME280;39866;48.638;-2.020;2023-09-19T12:21:25;101085.91;;;24.05;91.40
53960;BME280;39866;48.638;-2.020;2023-09-19T12:26:29;101083.31;;;24.26;90.90
53960;BME280;39866;48.638;-2.020;2023-09-19T12:28:55;101089.13;;;24.21;89.75
53960;BME280;39866;48.638;-2.020;2023-09-19T12:31:21;101087.13;;;24.23;88.85
53960;BME280;39866;48.638;-2.020;2023-09-19T12:33:53;101093.09;;;24.39;88.75
53960;BME280;39866;48.638;-2.020;2023-09-19T12:36:22;101087.88;;;24.36;89.15
53960;BME280;39866;48.638;-2.020;2023-09-19T12:38:54;101083.94;;;24.40;89.19
53960;BME280;39866;48.638;-2.020;2023-09-19T12:41:20;101090.00;;;24.44;88.59
53960;BME280;39866;48.638;-2.020;2023-09-19T12:43:47;101092.09;;;24.29;86.31
53960;BME280;39866;48.638;-2.020;2023-09-19T12:46:13;101081.22;;;24.29;87.46
53960;BME280;39866;48.638;-2.020;2023-09-19T12:48:40;101091.47;;;24.26;88.16
53960;BME280;39866;48.638;-2.020;2023-09-19T12:51:10;101083.81;;;24.31;89.87
53960;BME280;39866;48.638;-2.020;2023-09-19T12:56:17;101090.34;;;23.94;97.80
53960;BME280;39866;48.638;-2.020;2023-09-19T12:58:57;101076.47;;;23.75;97.83
53960;BME280;39866;48.638;-2.020;2023-09-19T13:01:26;101078.09;;;23.78;97.27
53960;BME280;39866;48.638;-2.020;2023-09-19T13:04:30;101079.44;;;23.83;96.35
53960;BME280;39866;48.638;-2.020;2023-09-19T13:06:58;101074.78;;;23.96;96.49
53960;BME280;39866;48.638;-2.020;2023-09-19T13:09:26;101083.66;;;23.98;100.00
53960;BME280;39866;48.638;-2.020;2023-09-19T13:12:00;101092.72;;;23.64;100.00
53960;BME280;39866;48.638;-2.020;2023-09-19T13:14:28;101097.47;;;23.14;100.00
53960;BME280;39866;48.638;-2.020;2023-09-19T13:17:04;101089.97;;;22.81;100.00
53960;BME280;39866;48.638;-2.020;2023-09-19T13:19:50;101081.81;;;22.57;100.00
53960;BME280;39866;48.638;-2.020;2023-09-19T13:25:15;101087.34;;;22.55;100.00
53960;BME280;39866;48.638;-2.020;2023-09-19T13:27:50;101084.69;;;22.79;100.00
53960;BME280;39866;48.638;-2.020;2023-09-19T13:30:28;101074.25;;;23.10;100.00